Weather at Ocracoke Island Airport

Public forecast

Using degrees Fahrenheit for public forecast. Weather courtesy of forecast.io.

Closest aviation weather report (METAR) to Ocracoke Island Airport

Closest report is Billy Mitchell Airport, 18.8 nm (34.9 km) ENE.

2024/06/20 14:51 (retrieved 34 minutes ago)

KHSE 201451Z AUTO 12011KT 10SM SCT043 29/19 A3034 RMK AO2 SLP274 T02940194 52007

Closest aviation forecast (TAF) to Ocracoke Island Airport

Closest forecast is Coastal Carolina Regional Airport, 52.9 nm (98.0 km) W.

2024/06/20 12:22 (retrieved 3 hours ago)

TAF KEWN 201120Z 2012/2112 10009KT P6SM SCT070 FM210000 VRB05KT P6SM SKC